Time;durP1;ratioP1;P1;durP2;ratioP2;P2;SDS_P1;SDS_P2;PMS_P1;PMS_P2;Temp;Humidity;BMP_temperature;BMP_pressure;BME280_temperature;BME280_humidity;BME280_pressure;Samples;Min_cycle;Max_cycle;Signal;HPM_P1;HPM_P2
2021/09/20 04:01:50;;;;;;;7.97;7.37;;;15.20;99.90;;;;;;5323111;23;20498;-67
2021/09/20 04:04:17;;;;;;;9.40;8.70;;;15.20;99.90;;;;;;4960302;29;20459;-68
2021/09/20 04:06:44;;;;;;;8.33;7.67;;;15.10;99.90;;;;;;4959785;29;20867;-69
2021/09/20 04:09:11;;;;;;;8.43;7.73;;;15.10;99.90;;;;;;4959570;28;20479;-69
2021/09/20 04:11:40;;;;;;;9.40;8.60;;;15.10;99.90;;;;;;4959891;29;20582;-69
2021/09/20 04:14:08;;;;;;;8.63;7.87;;;15.10;99.90;;;;;;4960009;28;20537;-68
2021/09/20 04:16:34;;;;;;;8.90;8.20;;;15.10;99.90;;;;;;4959734;28;20506;-69
2021/09/20 04:19:03;;;;;;;8.17;7.53;;;15.10;99.90;;;;;;4959622;28;20483;-68
2021/09/20 04:21:29;;;;;;;8.63;7.93;;;15.10;99.90;;;;;;4959843;28;20475;-68
2021/09/20 04:23:56;;;;;;;7.90;7.20;;;15.10;99.90;;;;;;4959722;29;20459;-68
2021/09/20 04:26:23;;;;;;;8.57;7.87;;;15.10;99.90;;;;;;4959752;29;20456;-68
2021/09/20 04:28:49;;;;;;;8.00;7.30;;;15.10;99.90;;;;;;4959574;29;20938;-67
2021/09/20 04:31:16;;;;;;;8.27;7.57;;;15.20;99.90;;;;;;4959483;29;20482;-67
2021/09/20 04:33:43;;;;;;;11.43;8.50;;;15.20;99.90;;;;;;4959477;29;20946;-67
2021/09/20 04:36:11;;;;;;;8.60;7.73;;;15.20;99.90;;;;;;4959365;29;20939;-68
2021/09/20 04:38:38;;;;;;;8.40;7.60;;;15.20;99.90;;;;;;4959493;29;20487;-68
2021/09/20 04:41:05;;;;;;;7.93;7.33;;;15.20;99.90;;;;;;4959581;29;20838;-68
2021/09/20 04:43:31;;;;;;;9.40;7.63;;;15.10;99.90;;;;;;4959649;29;20463;-68
2021/09/20 04:45:58;;;;;;;9.73;8.83;;;15.10;99.90;;;;;;4958908;28;20456;-68
2021/09/20 04:48:25;;;;;;;9.13;8.40;;;15.10;99.90;;;;;;4959265;29;20466;-68
2021/09/20 04:50:52;;;;;;;8.30;7.60;;;15.10;99.90;;;;;;4959230;29;20487;-67
2021/09/20 04:53:20;;;;;;;11.87;10.67;;;15.10;99.90;;;;;;4959579;29;20463;-68
2021/09/20 04:55:47;;;;;;;10.63;7.90;;;15.10;99.90;;;;;;4959851;28;20503;-68
2021/09/20 04:58:14;;;;;;;8.60;7.90;;;15.20;99.90;;;;;;4960203;28;20466;-68
2021/09/20 05:00:41;;;;;;;10.13;9.23;;;15.20;99.90;;;;;;4964107;28;20479;-68
2021/09/20 05:03:09;;;;;;;9.33;8.43;;;15.20;99.90;;;;;;4963880;29;20432;-69
2021/09/20 05:05:36;;;;;;;9.93;8.70;;;15.20;99.90;;;;;;4963516;29;20462;-68
2021/09/20 05:08:03;;;;;;;8.63;7.83;;;15.20;99.90;;;;;;4962212;29;20455;-68
2021/09/20 05:10:31;;;;;;;9.70;8.80;;;15.20;99.90;;;;;;4959268;28;20967;-69
2021/09/20 05:12:58;;;;;;;9.07;8.33;;;15.30;99.90;;;;;;4958407;28;20950;-68
2021/09/20 05:15:24;;;;;;;9.07;8.13;;;15.30;99.90;;;;;;4959504;29;20459;-68
2021/09/20 05:17:51;;;;;;;9.60;8.83;;;15.30;99.90;;;;;;4958921;28;20459;-68
2021/09/20 05:20:20;;;;;;;9.63;8.80;;;15.30;99.90;;;;;;4958479;29;21017;-68
2021/09/20 05:22:47;;;;;;;8.67;7.97;;;15.10;99.90;;;;;;4959183;28;20440;-68
2021/09/20 05:25:14;;;;;;;9.67;8.87;;;15.20;99.90;;;;;;4958852;29;20444;-68
2021/09/20 05:27:42;;;;;;;9.60;8.80;;;15.30;99.90;;;;;;4958629;28;20487;-68
2021/09/20 05:30:11;;;;;;;9.47;8.77;;;15.20;99.90;;;;;;4961495;28;20483;-68
2021/09/20 05:32:37;;;;;;;9.40;8.70;;;15.20;99.90;;;;;;4965441;28;20845;-66
2021/09/20 05:35:05;;;;;;;9.97;9.07;;;15.20;99.90;;;;;;4959115;29;20955;-67
2021/09/20 05:37:32;;;;;;;8.87;8.07;;;15.20;99.90;;;;;;4958945;29;20466;-67
2021/09/20 05:39:58;;;;;;;9.47;8.67;;;15.20;99.90;;;;;;4959174;29;20464;-67
2021/09/20 05:42:25;;;;;;;10.47;9.57;;;15.20;99.90;;;;;;4958883;29;20475;-67
2021/09/20 05:44:53;;;;;;;10.13;8.43;;;15.20;99.90;;;;;;4958513;29;20460;-66
2021/09/20 05:47:20;;;;;;;10.33;9.43;;;15.20;99.90;;;;;;4958461;29;20464;-66
2021/09/20 05:49:47;;;;;;;10.10;9.23;;;15.20;99.90;;;;;;4959250;28;20823;-67
2021/09/20 05:52:13;;;;;;;10.93;9.83;;;15.20;99.90;;;;;;4960794;29;20985;-68
2021/09/20 05:54:40;;;;;;;10.50;9.50;;;15.20;99.90;;;;;;4958354;28;20470;-67
2021/09/20 05:57:07;;;;;;;16.80;9.40;;;15.30;99.90;;;;;;4957876;28;20828;-68
2021/09/20 05:59:33;;;;;;;10.70;9.60;;;15.30;99.90;;;;;;4958016;29;20538;-68
2021/09/20 06:02:01;;;;;;;10.30;9.40;;;15.30;99.90;;;;;;4958123;29;20494;-68
2021/09/20 06:04:28;;;;;;;10.70;9.70;;;15.30;99.90;;;;;;4958399;29;20466;-68
2021/09/20 06:06:55;;;;;;;10.87;8.93;;;15.30;99.90;;;;;;4958166;28;20459;-69
2021/09/20 06:09:22;;;;;;;9.40;8.50;;;15.40;99.90;;;;;;4957840;29;20460;-69
2021/09/20 06:11:49;;;;;;;9.90;8.90;;;15.30;99.90;;;;;;4958334;29;20502;-68
2021/09/20 06:14:16;;;;;;;10.07;9.13;;;15.30;99.90;;;;;;4958035;28;20974;-68
2021/09/20 06:16:42;;;;;;;9.63;8.83;;;15.40;99.90;;;;;;4958527;28;20462;-68
2021/09/20 06:19:10;;;;;;;9.67;8.80;;;15.40;99.90;;;;;;4957743;29;20490;-69
2021/09/20 06:21:37;;;;;;;10.80;9.80;;;15.40;99.90;;;;;;4957419;29;20985;-69
2021/09/20 06:24:04;;;;;;;11.13;9.57;;;15.40;99.90;;;;;;4957406;28;20447;-69
2021/09/20 06:26:31;;;;;;;10.23;9.33;;;15.30;99.90;;;;;;4957531;29;20460;-69
2021/09/20 06:28:58;;;;;;;10.37;9.40;;;15.40;99.90;;;;;;4957212;29;20943;-69
2021/09/20 06:31:24;;;;;;;10.33;9.43;;;15.50;99.90;;;;;;4957604;29;20484;-68
2021/09/20 06:33:51;;;;;;;9.57;8.77;;;15.40;99.90;;;;;;4957850;29;20452;-69
2021/09/20 06:36:19;;;;;;;10.83;9.57;;;15.40;99.90;;;;;;4957753;29;20462;-68
2021/09/20 06:38:46;;;;;;;10.23;9.33;;;15.40;99.90;;;;;;4957432;29;20462;-68
2021/09/20 06:41:13;;;;;;;9.60;8.63;;;15.50;99.90;;;;;;4957215;28;20475;-68
2021/09/20 06:43:40;;;;;;;10.53;9.23;;;15.50;99.90;;;;;;4956841;29;20460;-68
2021/09/20 06:46:06;;;;;;;10.50;9.10;;;15.60;99.90;;;;;;4956668;28;20968;-68
2021/09/20 06:48:33;;;;;;;10.30;9.20;;;15.70;99.90;;;;;;4956930;29;20540;-69
2021/09/20 06:51:00;;;;;;;10.37;9.57;;;15.70;99.90;;;;;;4956362;28;20983;-69
2021/09/20 06:53:28;;;;;;;11.73;9.80;;;15.70;99.90;;;;;;4957043;29;20456;-68
2021/09/20 06:55:54;;;;;;;11.07;9.90;;;15.70;99.90;;;;;;4956842;29;20459;-68
2021/09/20 06:58:21;;;;;;;11.13;10.23;;;15.80;99.90;;;;;;4957647;29;20459;-68
2021/09/20 07:00:48;;;;;;;9.83;8.93;;;15.80;99.90;;;;;;4956247;29;20495;-67
2021/09/20 07:03:15;;;;;;;11.63;9.97;;;15.90;99.90;;;;;;4956715;29;20470;-68
2021/09/20 07:05:42;;;;;;;9.47;8.67;;;15.90;99.90;;;;;;4956644;29;20463;-68
2021/09/20 07:08:09;;;;;;;10.70;9.80;;;16.00;99.90;;;;;;4956938;28;20456;-67
2021/09/20 07:10:37;;;;;;;9.73;9.03;;;16.10;99.90;;;;;;4956520;28;20479;-68
2021/09/20 07:13:08;;;;;;;10.97;9.83;;;16.10;99.90;;;;;;4956627;29;20459;-67
2021/09/20 07:15:35;;;;;;;12.07;10.97;;;16.10;99.90;;;;;;4956603;29;20444;-67
2021/09/20 07:18:02;;;;;;;10.93;9.40;;;16.00;99.90;;;;;;4956487;29;20464;-66
2021/09/20 07:20:29;;;;;;;11.13;10.13;;;16.00;99.90;;;;;;4956596;29;20482;-67
2021/09/20 07:22:55;;;;;;;10.40;9.50;;;15.90;99.90;;;;;;4956754;29;20451;-66
2021/09/20 07:25:22;;;;;;;12.47;10.40;;;16.00;99.90;;;;;;4956428;29;20794;-67
2021/09/20 07:27:50;;;;;;;11.17;9.63;;;16.10;99.90;;;;;;4956257;29;20452;-67
2021/09/20 07:30:18;;;;;;;12.37;10.43;;;16.10;99.90;;;;;;4958813;28;20951;-68
2021/09/20 07:32:45;;;;;;;10.07;9.10;;;16.20;99.90;;;;;;4957227;29;20465;-69
2021/09/20 07:35:16;;;;;;;16.83;9.43;;;16.20;99.90;;;;;;4959976;28;20470;-69
2021/09/20 07:37:42;;;;;;;12.07;10.93;;;16.20;99.90;;;;;;4960627;29;20470;-69
2021/09/20 07:40:11;;;;;;;11.23;10.20;;;16.20;99.90;;;;;;4956462;29;20515;-69
2021/09/20 07:42:38;;;;;;;11.40;10.20;;;16.20;99.90;;;;;;4956842;28;20824;-69
2021/09/20 07:45:08;;;;;;;12.20;11.07;;;16.20;99.90;;;;;;4958734;28;20489;-69
2021/09/20 07:47:34;;;;;;;12.10;10.93;;;16.20;99.90;;;;;;4957287;29;20454;-69
2021/09/20 07:50:01;;;;;;;12.50;11.03;;;16.30;99.90;;;;;;4956303;29;20459;-67
2021/09/20 07:52:28;;;;;;;12.93;11.60;;;16.40;99.90;;;;;;4955855;29;20480;-67
2021/09/20 07:54:56;;;;;;;12.87;11.80;;;16.40;99.90;;;;;;4956299;28;20460;-68
2021/09/20 07:57:23;;;;;;;17.10;13.50;;;16.50;99.90;;;;;;4956138;28;20578;-68
2021/09/20 07:59:50;;;;;;;13.60;12.23;;;16.60;99.90;;;;;;4957133;29;20842;-68
2021/09/20 08:02:18;;;;;;;12.83;11.63;;;16.60;99.90;;;;;;4956213;29;20496;-67
2021/09/20 08:04:45;;;;;;;13.40;11.30;;;16.70;99.90;;;;;;4956822;29;20459;-68
2021/09/20 08:07:12;;;;;;;11.20;10.00;;;16.80;99.90;;;;;;4956544;28;20456;-68
2021/09/20 08:09:38;;;;;;;12.20;11.10;;;16.90;99.90;;;;;;4956385;29;20866;-67
2021/09/20 08:12:06;;;;;;;14.03;12.53;;;16.90;99.90;;;;;;4956202;29;20479;-66
2021/09/20 08:14:32;;;;;;;12.33;11.13;;;17.00;99.90;;;;;;4956094;28;20459;-66
2021/09/20 08:16:59;;;;;;;13.30;11.77;;;17.00;99.90;;;;;;4955971;29;20455;-67
2021/09/20 08:19:28;;;;;;;11.57;10.50;;;17.00;99.90;;;;;;4955894;29;20456;-67
2021/09/20 08:21:55;;;;;;;13.87;12.30;;;17.10;99.90;;;;;;4956177;29;20471;-67
2021/09/20 08:24:22;;;;;;;11.67;10.67;;;17.10;99.90;;;;;;4956968;29;20460;-66
2021/09/20 08:26:48;;;;;;;11.30;10.20;;;17.20;99.90;;;;;;4956011;29;20459;-66
2021/09/20 08:29:15;;;;;;;12.00;10.80;;;17.20;99.90;;;;;;4955549;29;20459;-67
2021/09/20 08:31:42;;;;;;;12.73;11.53;;;17.40;99.90;;;;;;4955639;29;20475;-67
2021/09/20 08:34:08;;;;;;;12.03;10.43;;;17.50;99.90;;;;;;4956185;29;20506;-67
2021/09/20 08:36:36;;;;;;;12.10;10.80;;;17.70;99.90;;;;;;4964327;29;20976;-67
2021/09/20 08:39:04;;;;;;;13.00;11.90;;;17.80;99.90;;;;;;4963603;28;20464;-67
2021/09/20 08:41:31;;;;;;;12.83;11.73;;;17.90;99.90;;;;;;4956682;29;21049;-66
2021/09/20 08:43:58;;;;;;;13.03;11.73;;;17.90;99.90;;;;;;4955972;29;20467;-67
2021/09/20 08:46:24;;;;;;;10.53;9.63;;;17.90;99.90;;;;;;4955331;28;20981;-67
2021/09/20 08:48:52;;;;;;;12.67;11.53;;;17.90;99.90;;;;;;4958504;29;20456;-66
2021/09/20 08:51:20;;;;;;;13.90;12.47;;;17.90;99.90;;;;;;4958679;29;21006;-66
2021/09/20 08:53:50;;;;;;;12.60;11.50;;;17.80;99.90;;;;;;4958930;29;20985;-68
2021/09/20 08:56:17;;;;;;;12.70;11.70;;;17.90;99.90;;;;;;4959452;29;20476;-67
2021/09/20 08:58:44;;;;;;;12.90;11.70;;;17.90;99.90;;;;;;4959209;29;20459;-67
2021/09/20 09:01:11;;;;;;;12.20;11.00;;;17.90;99.90;;;;;;4964605;28;20487;-67
2021/09/20 09:03:38;;;;;;;13.00;11.80;;;17.90;99.90;;;;;;4959956;29;20455;-67
2021/09/20 09:06:05;;;;;;;12.00;11.00;;;17.70;99.90;;;;;;4958714;28;20961;-67
2021/09/20 09:08:34;;;;;;;12.23;11.03;;;17.70;99.90;;;;;;4958649;28;20454;-67
2021/09/20 09:11:04;;;;;;;12.60;11.30;;;17.80;99.90;;;;;;4958589;28;20475;-67
2021/09/20 09:13:36;;;;;;;12.20;11.00;;;17.90;99.90;;;;;;4958749;29;20459;-67
2021/09/20 09:16:14;;;;;;;12.70;11.60;;;17.80;99.90;;;;;;4958583;29;20947;-68
2021/09/20 09:19:02;;;;;;;13.67;12.37;;;17.90;99.90;;;;;;4958690;28;20965;-67
2021/09/20 09:21:30;;;;;;;13.13;11.90;;;17.90;99.90;;;;;;4958344;29;20569;-68
2021/09/20 09:24:03;;;;;;;14.63;12.73;;;17.80;99.90;;;;;;4958792;29;20530;-68
2021/09/20 09:26:31;;;;;;;14.33;12.93;;;17.80;99.90;;;;;;4958471;28;20467;-68
2021/09/20 09:29:11;;;;;;;13.67;12.30;;;17.80;99.90;;;;;;4958409;29;20456;-68
2021/09/20 09:31:39;;;;;;;13.80;12.40;;;17.70;99.90;;;;;;4959418;29;20467;-68
2021/09/20 09:34:17;;;;;;;13.33;12.03;;;17.80;99.90;;;;;;4963588;29;21009;-68
2021/09/20 09:36:44;;;;;;;14.43;13.10;;;17.60;99.90;;;;;;4960466;28;20468;-68
2021/09/20 09:39:11;;;;;;;12.80;11.70;;;17.60;99.90;;;;;;4958737;29;20482;-68
2021/09/20 09:41:43;;;;;;;14.40;13.00;;;17.50;99.90;;;;;;4958624;28;20483;-68
2021/09/20 09:44:12;;;;;;;14.23;12.83;;;17.50;99.90;;;;;;4958030;29;20471;-68
2021/09/20 09:46:40;;;;;;;21.33;13.70;;;17.50;99.90;;;;;;4958272;28;20460;-69
2021/09/20 09:49:17;;;;;;;14.57;13.17;;;17.30;99.90;;;;;;4958257;29;20459;-68
2021/09/20 09:51:59;;;;;;;14.90;13.60;;;17.30;99.90;;;;;;4957899;29;20526;-69
2021/09/20 09:54:27;;;;;;;13.73;12.53;;;17.20;99.90;;;;;;4958469;29;20446;-69
2021/09/20 09:57:15;;;;;;;13.40;12.10;;;17.20;99.90;;;;;;4958331;28;20463;-67
2021/09/20 09:59:42;;;;;;;13.67;12.40;;;17.20;99.90;;;;;;4958210;28;20459;-67
2021/09/20 10:02:31;;;;;;;13.27;11.97;;;17.30;99.90;;;;;;4960647;29;20497;-68
2021/09/20 10:04:59;;;;;;;13.90;12.27;;;17.50;99.90;;;;;;4959576;29;20472;-68
2021/09/20 10:07:28;;;;;;;14.90;12.77;;;17.40;99.90;;;;;;4957985;29;20462;-67
2021/09/20 10:09:56;;;;;;;16.60;13.30;;;17.50;99.90;;;;;;4958149;29;20456;-68
2021/09/20 10:12:27;;;;;;;15.13;13.70;;;17.40;99.90;;;;;;4957755;29;20476;-68
2021/09/20 10:14:56;;;;;;;14.13;12.83;;;17.30;99.90;;;;;;4959237;29;20455;-68
2021/09/20 10:17:23;;;;;;;14.73;13.43;;;17.30;99.90;;;;;;4957106;29;20844;-67
2021/09/20 10:19:51;;;;;;;15.30;12.80;;;17.40;99.90;;;;;;4957754;28;20454;-69
2021/09/20 10:22:18;;;;;;;12.97;11.77;;;17.40;99.90;;;;;;4961854;29;20490;-68
2021/09/20 10:24:48;;;;;;;14.53;12.30;;;17.50;99.90;;;;;;4957905;28;20456;-69
2021/09/20 10:27:18;;;;;;;13.57;12.33;;;17.50;99.90;;;;;;4957808;29;20467;-69
2021/09/20 10:29:51;;;;;;;17.10;14.20;;;17.60;99.90;;;;;;4959924;29;20452;-69
2021/09/20 10:32:19;;;;;;;14.70;13.20;;;17.50;99.90;;;;;;4957534;29;20483;-69
2021/09/20 10:34:48;;;;;;;15.33;13.80;;;17.50;99.90;;;;;;4957946;29;20466;-69
2021/09/20 10:37:16;;;;;;;13.60;12.33;;;17.50;99.90;;;;;;4958352;28;20563;-69
2021/09/20 10:39:50;;;;;;;17.40;14.07;;;17.50;99.90;;;;;;4957905;29;20456;-71
2021/09/20 10:42:47;;;;;;;15.63;14.00;;;17.50;99.90;;;;;;4957391;29;20889;-69
2021/09/20 10:45:40;;;;;;;16.90;15.10;;;17.50;99.90;;;;;;4957320;28;20518;-69
2021/09/20 10:48:24;;;;;;;15.80;14.30;;;17.40;99.90;;;;;;4966841;28;20457;-69
2021/09/20 10:50:53;;;;;;;15.50;14.17;;;17.50;99.90;;;;;;4967669;29;20483;-69
2021/09/20 10:53:27;;;;;;;15.47;13.83;;;17.50;99.90;;;;;;4968598;28;20455;-68
2021/09/20 10:56:12;;;;;;;14.17;12.97;;;17.70;99.90;;;;;;4968939;29;20930;-69
2021/09/20 10:58:41;;;;;;;14.40;13.00;;;17.70;99.90;;;;;;4949256;29;20459;-68
2021/09/20 11:01:28;;;;;;;13.80;12.60;;;17.80;99.90;;;;;;4956519;29;20987;-69
2021/09/20 11:03:59;;;;;;;16.77;13.07;;;17.80;99.90;;;;;;4957945;29;20470;-69
2021/09/20 11:06:28;;;;;;;14.43;12.10;;;17.90;99.90;;;;;;4957118;29;20443;-69
2021/09/20 11:09:33;;;;;;;18.07;12.70;;;18.10;99.90;;;;;;4956746;29;20824;-69
2021/09/20 11:12:08;;;;;;;14.90;13.40;;;18.20;99.90;;;;;;4956136;28;20491;-69
2021/09/20 11:14:49;;;;;;;13.90;12.70;;;18.30;99.90;;;;;;4957025;29;20451;-69
2021/09/20 11:17:42;;;;;;;13.63;12.33;;;18.40;99.90;;;;;;4956547;29;20534;-69
2021/09/20 11:20:39;;;;;;;14.23;12.90;;;18.60;99.90;;;;;;4953566;29;20454;-69
2021/09/20 11:23:18;;;;;;;13.80;12.00;;;18.60;99.90;;;;;;4955375;29;20818;-69
2021/09/20 11:26:03;;;;;;;13.17;11.63;;;18.70;99.90;;;;;;4956788;28;20462;-70
2021/09/20 11:28:31;;;;;;;13.90;12.57;;;18.80;99.90;;;;;;4956613;28;20937;-69
2021/09/20 11:30:58;;;;;;;14.67;13.30;;;18.90;99.90;;;;;;4956406;29;20475;-69
2021/09/20 11:33:35;;;;;;;13.77;12.57;;;18.90;99.90;;;;;;4956015;29;20943;-69
2021/09/20 11:36:23;;;;;;;13.80;12.60;;;18.80;99.90;;;;;;4956551;29;20444;-69
2021/09/20 11:38:51;;;;;;;13.43;12.13;;;18.90;99.90;;;;;;4956267;29;20440;-69
2021/09/20 11:41:20;;;;;;;13.50;12.20;;;18.80;99.90;;;;;;4956247;29;20487;-69
2021/09/20 11:43:47;;;;;;;14.27;12.87;;;18.70;99.90;;;;;;4956199;29;20513;-69
2021/09/20 11:46:19;;;;;;;13.90;12.40;;;18.60;99.90;;;;;;4956078;29;20507;-69
2021/09/20 11:48:47;;;;;;;15.73;13.60;;;18.60;99.90;;;;;;4956255;29;20448;-69
2021/09/20 11:51:24;;;;;;;13.40;12.30;;;18.50;99.90;;;;;;4956130;29;20475;-69
2021/09/20 11:53:50;;;;;;;14.53;13.13;;;18.60;99.90;;;;;;4956162;29;20443;-69
2021/09/20 11:56:17;;;;;;;14.60;13.40;;;18.80;99.90;;;;;;4956010;29;20946;-69
2021/09/20 11:58:52;;;;;;;14.27;13.07;;;18.90;99.90;;;;;;4956179;29;20456;-69
2021/09/20 12:01:21;;;;;;;14.70;13.40;;;18.70;99.90;;;;;;4956097;28;21005;-68
2021/09/20 12:03:50;;;;;;;14.97;13.60;;;18.90;99.90;;;;;;4956321;29;20462;-68
2021/09/20 12:06:17;;;;;;;14.60;13.00;;;18.70;99.90;;;;;;4956319;29;20462;-68
2021/09/20 12:08:45;;;;;;;14.40;13.20;;;18.80;99.90;;;;;;4956578;29;20463;-67
2021/09/20 12:11:11;;;;;;;13.30;12.20;;;18.90;99.90;;;;;;4956065;29;20476;-67
2021/09/20 12:13:38;;;;;;;14.07;12.77;;;19.10;99.90;;;;;;4956196;29;20464;-67
2021/09/20 12:16:07;;;;;;;13.90;12.63;;;19.30;99.90;;;;;;4956541;28;20530;-68
2021/09/20 12:18:35;;;;;;;12.90;11.63;;;19.50;99.90;;;;;;4955612;28;21026;-69
2021/09/20 12:21:05;;;;;;;12.00;10.80;;;19.80;99.90;;;;;;4956277;28;20506;-67
2021/09/20 12:23:35;;;;;;;11.17;10.27;;;19.80;99.90;;;;;;4960221;29;20910;-67
2021/09/20 12:26:03;;;;;;;10.60;9.90;;;19.80;99.90;;;;;;4959545;29;20463;-67
2021/09/20 12:28:32;;;;;;;13.30;12.20;;;19.80;99.90;;;;;;4959730;28;20462;-69
2021/09/20 12:31:03;;;;;;;13.27;12.17;;;20.00;99.90;;;;;;4959611;28;20471;-68
2021/09/20 12:33:31;;;;;;;13.00;11.83;;;20.20;99.90;;;;;;4959475;28;20922;-69
2021/09/20 12:35:57;;;;;;;12.97;11.97;;;20.40;99.90;;;;;;4959547;29;20456;-69
2021/09/20 12:38:36;;;;;;;12.97;11.40;;;20.60;99.90;;;;;;4959852;29;20846;-69
2021/09/20 12:41:13;;;;;;;12.50;11.60;;;20.90;99.90;;;;;;4959274;29;20483;-68
2021/09/20 12:43:41;;;;;;;12.83;11.83;;;21.30;99.90;;;;;;4960242;29;20903;-69
2021/09/20 12:46:16;;;;;;;11.90;10.80;;;21.70;99.90;;;;;;4959709;29;20462;-69
2021/09/20 12:48:45;;;;;;;13.53;12.20;;;21.90;99.90;;;;;;4959730;29;20450;-68
2021/09/20 12:51:15;;;;;;;13.17;12.17;;;22.00;99.90;;;;;;4959093;28;20471;-67
2021/09/20 12:53:46;;;;;;;12.70;11.60;;;21.50;99.90;;;;;;4959266;29;20455;-66
2021/09/20 12:56:14;;;;;;;13.63;12.53;;;21.40;99.90;;;;;;4959336;29;20475;-66
2021/09/20 12:58:49;;;;;;;13.57;12.47;;;21.10;99.90;;;;;;4959259;29;20462;-66
2021/09/20 13:01:23;;;;;;;12.30;11.40;;;21.30;99.90;;;;;;4958839;29;20490;-66
2021/09/20 13:03:58;;;;;;;12.63;11.53;;;21.60;99.90;;;;;;4964245;29;20444;-66
2021/09/20 13:06:24;;;;;;;14.60;13.40;;;21.30;99.90;;;;;;4963596;29;20446;-66
2021/09/20 13:09:00;;;;;;;13.10;12.10;;;21.40;99.90;;;;;;4960607;29;20497;-66
2021/09/20 13:11:27;;;;;;;13.67;12.53;;;21.50;99.90;;;;;;4960087;29;20475;-66
2021/09/20 13:13:54;;;;;;;13.53;12.50;;;21.10;99.90;;;;;;4959121;29;20459;-66
2021/09/20 13:16:39;;;;;;;13.37;12.27;;;21.20;99.90;;;;;;4959418;29;20459;-66
2021/09/20 13:19:08;;;;;;;15.30;14.10;;;21.50;99.90;;;;;;4958042;28;20447;-66
2021/09/20 13:21:36;;;;;;;14.60;13.40;;;21.30;99.90;;;;;;4958657;29;20859;-66
2021/09/20 13:24:05;;;;;;;13.57;12.47;;;21.10;99.90;;;;;;4958650;28;20459;-67
2021/09/20 13:26:34;;;;;;;12.70;11.80;;;21.00;99.90;;;;;;4958301;29;20514;-66
2021/09/20 13:29:03;;;;;;;14.87;13.77;;;21.10;99.90;;;;;;4958509;28;20471;-66
2021/09/20 13:31:31;;;;;;;13.70;12.50;;;20.90;99.90;;;;;;4958511;29;20507;-66
2021/09/20 13:33:59;;;;;;;11.93;11.13;;;20.90;99.90;;;;;;4957880;28;20542;-66
2021/09/20 13:36:26;;;;;;;11.70;10.80;;;21.00;99.90;;;;;;4958325;29;20464;-66
2021/09/20 13:38:53;;;;;;;12.97;11.87;;;21.40;99.90;;;;;;4958286;29;20463;-66
2021/09/20 13:41:21;;;;;;;11.90;10.90;;;21.40;99.90;;;;;;4958154;28;20486;-66
2021/09/20 13:43:50;;;;;;;13.03;12.03;;;21.90;99.90;;;;;;4957890;28;20943;-66
2021/09/20 13:46:20;;;;;;;12.67;11.60;;;21.80;99.90;;;;;;4958076;28;20455;-68
2021/09/20 13:48:47;;;;;;;11.97;10.77;;;21.40;99.90;;;;;;4958044;29;20981;-66
2021/09/20 13:51:14;;;;;;;12.80;11.80;;;21.30;99.90;;;;;;4958149;29;20487;-67
2021/09/20 13:53:41;;;;;;;12.20;11.20;;;21.20;99.90;;;;;;4957861;28;20452;-67
2021/09/20 13:56:08;;;;;;;12.07;11.27;;;21.10;99.90;;;;;;4957654;29;20455;-66
2021/09/20 13:58:36;;;;;;;11.67;10.83;;;20.70;99.90;;;;;;4957710;29;20812;-66
2021/09/20 14:01:03;;;;;;;11.70;10.70;;;20.70;99.90;;;;;;4957633;28;20498;-67
2021/09/20 14:03:30;;;;;;;12.10;11.10;;;20.60;99.90;;;;;;4958148;29;20516;-67
2021/09/20 14:05:57;;;;;;;11.23;10.33;;;20.50;99.90;;;;;;4958003;29;20495;-67
2021/09/20 14:08:25;;;;;;;10.73;9.80;;;20.40;99.90;;;;;;4957929;28;20460;-66
2021/09/20 14:10:54;;;;;;;10.20;9.50;;;20.40;99.90;;;;;;4957607;29;20482;-66
2021/09/20 14:13:23;;;;;;;14.10;10.97;;;20.10;99.90;;;;;;4957739;28;20452;-66
2021/09/20 14:15:52;;;;;;;10.27;9.50;;;19.90;99.90;;;;;;4957877;29;20509;-66
2021/09/20 14:18:19;;;;;;;10.20;9.40;;;20.00;99.90;;;;;;4957639;29;20463;-66
2021/09/20 14:20:46;;;;;;;10.50;9.70;;;20.00;99.90;;;;;;4957866;29;20471;-69
2021/09/20 14:23:13;;;;;;;10.73;9.87;;;19.90;99.90;;;;;;4957713;29;20570;-69
2021/09/20 14:25:41;;;;;;;9.57;8.90;;;19.90;99.90;;;;;;4957574;29;20462;-69
2021/09/20 14:28:11;;;;;;;11.10;10.20;;;20.00;99.90;;;;;;4957262;29;20943;-69
2021/09/20 14:30:39;;;;;;;10.83;9.93;;;20.00;99.90;;;;;;4957100;29;20864;-70
2021/09/20 14:33:08;;;;;;;10.50;9.50;;;20.20;99.90;;;;;;4957079;29;20460;-69
2021/09/20 14:35:35;;;;;;;10.90;10.10;;;20.20;99.90;;;;;;4957249;29;20459;-69
2021/09/20 14:38:02;;;;;;;9.93;9.23;;;20.20;99.90;;;;;;4957339;29;20462;-69
2021/09/20 14:40:30;;;;;;;10.17;9.13;;;20.30;99.90;;;;;;4957268;29;20463;-69
2021/09/20 14:42:58;;;;;;;9.70;9.00;;;20.40;99.90;;;;;;4957375;28;20534;-68
2021/09/20 14:45:25;;;;;;;9.23;8.43;;;20.40;99.90;;;;;;4956194;28;20466;-69
2021/09/20 14:47:53;;;;;;;10.30;9.57;;;20.40;99.90;;;;;;4957297;29;20462;-69
2021/09/20 14:50:25;;;;;;;10.70;9.80;;;20.30;99.90;;;;;;4956504;29;20807;-69
2021/09/20 14:52:53;;;;;;;9.37;8.60;;;20.20;99.90;;;;;;4956631;29;20440;-69
2021/09/20 14:55:19;;;;;;;9.80;9.00;;;20.20;99.90;;;;;;4956541;29;20511;-69
2021/09/20 14:57:46;;;;;;;10.50;9.60;;;20.20;99.90;;;;;;4957438;29;20460;-69
2021/09/20 15:00:14;;;;;;;8.80;8.10;;;20.10;99.90;;;;;;4956422;28;20455;-70
2021/09/20 15:02:42;;;;;;;10.53;9.60;;;20.10;99.90;;;;;;4956664;29;20490;-70
2021/09/20 15:05:10;;;;;;;10.70;9.80;;;20.00;99.90;;;;;;4957567;29;20459;-70
2021/09/20 15:07:38;;;;;;;10.60;9.80;;;19.90;99.90;;;;;;4956900;28;20455;-69
2021/09/20 15:10:07;;;;;;;10.27;9.40;;;19.80;99.90;;;;;;4956512;29;20462;-69
2021/09/20 15:12:34;;;;;;;9.33;8.53;;;19.80;99.90;;;;;;4956001;29;20831;-69
2021/09/20 15:15:00;;;;;;;9.53;8.83;;;19.80;99.90;;;;;;4956480;29;20455;-69
2021/09/20 15:17:27;;;;;;;10.70;9.77;;;19.90;99.90;;;;;;4956636;29;20561;-69
2021/09/20 15:19:54;;;;;;;10.27;9.27;;;19.90;99.90;;;;;;4956588;29;20463;-69
2021/09/20 15:22:20;;;;;;;9.40;8.70;;;19.80;99.90;;;;;;4956511;29;20480;-69
2021/09/20 15:24:48;;;;;;;10.60;9.70;;;19.90;99.90;;;;;;4956223;29;20943;-69
2021/09/20 15:27:15;;;;;;;10.13;9.10;;;19.70;99.90;;;;;;4956923;29;20470;-69
2021/09/20 15:29:42;;;;;;;10.50;9.60;;;19.70;99.90;;;;;;4956423;29;20494;-68
2021/09/20 15:32:09;;;;;;;9.43;8.77;;;19.70;99.90;;;;;;4956905;29;20499;-68
2021/09/20 15:34:36;;;;;;;10.67;9.77;;;19.70;99.90;;;;;;4957138;29;20471;-68
2021/09/20 15:37:03;;;;;;;12.07;11.00;;;19.70;99.90;;;;;;4957159;28;20966;-68
2021/09/20 15:39:30;;;;;;;10.97;9.97;;;19.70;99.90;;;;;;4956250;29;20466;-69
2021/09/20 15:41:58;;;;;;;10.87;9.97;;;19.60;99.90;;;;;;4956400;29;20479;-69
2021/09/20 15:44:24;;;;;;;11.10;10.10;;;19.60;99.90;;;;;;4956793;29;20459;-69
2021/09/20 15:46:52;;;;;;;12.50;10.60;;;19.60;99.90;;;;;;4956733;28;20459;-69
2021/09/20 15:49:18;;;;;;;11.50;10.50;;;19.50;99.90;;;;;;4956983;29;20455;-69
2021/09/20 15:51:45;;;;;;;12.20;11.10;;;19.50;99.90;;;;;;4956500;29;20475;-69
2021/09/20 15:54:17;;;;;;;11.87;10.97;;;19.50;99.90;;;;;;4956371;29;20455;-68
2021/09/20 15:56:44;;;;;;;10.97;10.07;;;19.40;99.90;;;;;;4957593;28;20785;-69
2021/09/20 15:59:12;;;;;;;12.50;11.50;;;19.40;99.90;;;;;;4960884;29;20463;-70
2021/09/20 16:01:39;;;;;;;14.63;11.50;;;19.40;99.90;;;;;;4960496;28;21026;-69
2021/09/20 16:04:06;;;;;;;11.70;10.70;;;19.20;99.90;;;;;;4960074;28;20479;-69
2021/09/20 16:06:32;;;;;;;12.27;11.17;;;19.10;99.90;;;;;;4960048;28;20466;-69
2021/09/20 16:08:59;;;;;;;12.80;11.77;;;19.00;99.90;;;;;;4960109;28;20915;-69
2021/09/20 16:11:26;;;;;;;12.40;11.40;;;18.90;99.90;;;;;;4960312;29;20514;-69
2021/09/20 16:13:53;;;;;;;13.33;12.13;;;18.70;99.90;;;;;;4959730;29;20856;-69
2021/09/20 16:16:21;;;;;;;12.37;11.37;;;18.70;99.90;;;;;;4960300;29;20467;-69
2021/09/20 16:18:48;;;;;;;12.67;11.67;;;18.60;99.90;;;;;;4960357;28;20455;-69
2021/09/20 16:21:14;;;;;;;13.40;12.30;;;18.60;99.90;;;;;;4960110;29;20479;-69
2021/09/20 16:23:41;;;;;;;12.30;11.27;;;18.60;99.90;;;;;;4960207;28;20479;-70
2021/09/20 16:26:08;;;;;;;13.40;12.03;;;18.50;99.90;;;;;;4960017;29;20458;-70
2021/09/20 16:28:35;;;;;;;12.43;11.43;;;18.40;99.90;;;;;;4959371;29;20947;-70
2021/09/20 16:31:04;;;;;;;14.07;12.80;;;18.40;99.90;;;;;;4959373;28;20829;-68
2021/09/20 16:33:32;;;;;;;11.93;10.83;;;18.40;99.90;;;;;;4959585;28;20459;-68
2021/09/20 16:35:59;;;;;;;12.90;11.83;;;18.30;99.90;;;;;;4959364;29;20447;-67
2021/09/20 16:38:28;;;;;;;13.33;12.23;;;18.30;99.90;;;;;;4959603;29;20491;-70
2021/09/20 16:40:55;;;;;;;12.60;11.60;;;18.30;99.90;;;;;;4959159;29;20482;-70
2021/09/20 16:43:22;;;;;;;13.97;12.67;;;18.20;99.90;;;;;;4958975;29;20479;-68